sensor_id;sensor_type;location;lat;lon;timestamp;temperature;humidity
9118;DHT22;4594;50.994;7.126;2023-05-07T00:01:46;17.00;48.60
9118;DHT22;4594;50.994;7.126;2023-05-07T00:04:12;17.10;48.70
9118;DHT22;4594;50.994;7.126;2023-05-07T00:06:38;17.00;48.70
9118;DHT22;4594;50.994;7.126;2023-05-07T00:09:05;17.00;48.80
9118;DHT22;4594;50.994;7.126;2023-05-07T00:11:32;17.10;48.90
9118;DHT22;4594;50.994;7.126;2023-05-07T00:13:58;17.00;48.80
9118;DHT22;4594;50.994;7.126;2023-05-07T00:16:24;17.00;48.90
9118;DHT22;4594;50.994;7.126;2023-05-07T00:18:50;17.10;49.00
9118;DHT22;4594;50.994;7.126;2023-05-07T00:21:16;17.10;49.00
9118;DHT22;4594;50.994;7.126;2023-05-07T00:23:41;17.10;49.00
9118;DHT22;4594;50.994;7.126;2023-05-07T00:26:07;17.10;49.00
9118;DHT22;4594;50.994;7.126;2023-05-07T00:28:33;17.10;49.00
9118;DHT22;4594;50.994;7.126;2023-05-07T00:30:58;17.00;48.90
9118;DHT22;4594;50.994;7.126;2023-05-07T00:33:24;17.00;48.90
9118;DHT22;4594;50.994;7.126;2023-05-07T00:35:52;17.00;49.00
9118;DHT22;4594;50.994;7.126;2023-05-07T00:38:19;17.00;49.10
9118;DHT22;4594;50.994;7.126;2023-05-07T00:40:45;17.00;49.20
9118;DHT22;4594;50.994;7.126;2023-05-07T00:43:11;17.00;49.30
9118;DHT22;4594;50.994;7.126;2023-05-07T00:45:38;17.00;49.40
9118;DHT22;4594;50.994;7.126;2023-05-07T00:48:04;16.90;49.40
9118;DHT22;4594;50.994;7.126;2023-05-07T00:50:31;17.00;49.50
9118;DHT22;4594;50.994;7.126;2023-05-07T00:52:58;16.90;49.50
9118;DHT22;4594;50.994;7.126;2023-05-07T00:55:25;16.90;49.50
9118;DHT22;4594;50.994;7.126;2023-05-07T00:57:51;16.90;49.40
9118;DHT22;4594;50.994;7.126;2023-05-07T01:00:18;16.90;49.40
9118;DHT22;4594;50.994;7.126;2023-05-07T01:02:45;16.90;49.40
9118;DHT22;4594;50.994;7.126;2023-05-07T01:05:14;16.90;49.40
9118;DHT22;4594;50.994;7.126;2023-05-07T01:07:42;16.80;49.30
9118;DHT22;4594;50.994;7.126;2023-05-07T01:10:09;16.90;49.40
9118;DHT22;4594;50.994;7.126;2023-05-07T01:12:37;16.90;49.30
9118;DHT22;4594;50.994;7.126;2023-05-07T01:15:05;16.90;49.40
9118;DHT22;4594;50.994;7.126;2023-05-07T01:17:37;16.90;49.30
9118;DHT22;4594;50.994;7.126;2023-05-07T01:20:05;16.90;49.40
9118;DHT22;4594;50.994;7.126;2023-05-07T01:22:36;16.90;49.20
9118;DHT22;4594;50.994;7.126;2023-05-07T01:25:04;16.80;49.20
9118;DHT22;4594;50.994;7.126;2023-05-07T01:27:31;16.90;49.10
9118;DHT22;4594;50.994;7.126;2023-05-07T01:29:58;16.90;49.10
9118;DHT22;4594;50.994;7.126;2023-05-07T01:32:43;17.00;49.10
9118;DHT22;4594;50.994;7.126;2023-05-07T01:35:26;17.00;49.10
9118;DHT22;4594;50.994;7.126;2023-05-07T01:37:54;17.00;49.00
9118;DHT22;4594;50.994;7.126;2023-05-07T01:40:21;17.00;48.90
9118;DHT22;4594;50.994;7.126;2023-05-07T01:42:48;17.00;48.80
9118;DHT22;4594;50.994;7.126;2023-05-07T01:45:14;16.90;48.70
9118;DHT22;4594;50.994;7.126;2023-05-07T01:47:40;17.00;48.90
9118;DHT22;4594;50.994;7.126;2023-05-07T01:50:06;17.10;49.10
9118;DHT22;4594;50.994;7.126;2023-05-07T01:52:37;17.10;49.20
9118;DHT22;4594;50.994;7.126;2023-05-07T01:55:04;17.10;49.20
9118;DHT22;4594;50.994;7.126;2023-05-07T01:57:31;17.10;49.20
9118;DHT22;4594;50.994;7.126;2023-05-07T01:59:57;17.10;49.20
9118;DHT22;4594;50.994;7.126;2023-05-07T02:02:22;17.10;49.20
9118;DHT22;4594;50.994;7.126;2023-05-07T02:04:48;17.10;49.20
9118;DHT22;4594;50.994;7.126;2023-05-07T02:07:14;17.10;49.10
9118;DHT22;4594;50.994;7.126;2023-05-07T02:09:39;17.10;49.20
9118;DHT22;4594;50.994;7.126;2023-05-07T02:12:05;17.10;49.20
9118;DHT22;4594;50.994;7.126;2023-05-07T02:14:31;17.10;49.20
9118;DHT22;4594;50.994;7.126;2023-05-07T02:16:56;17.10;49.30
9118;DHT22;4594;50.994;7.126;2023-05-07T02:19:22;17.10;49.20
9118;DHT22;4594;50.994;7.126;2023-05-07T02:21:48;17.10;49.20
9118;DHT22;4594;50.994;7.126;2023-05-07T02:24:14;17.10;49.20
9118;DHT22;4594;50.994;7.126;2023-05-07T02:26:42;17.10;49.20
9118;DHT22;4594;50.994;7.126;2023-05-07T02:29:08;17.00;49.20
9118;DHT22;4594;50.994;7.126;2023-05-07T02:31:34;17.10;49.10
9118;DHT22;4594;50.994;7.126;2023-05-07T02:34:00;17.00;49.10
9118;DHT22;4594;50.994;7.126;2023-05-07T02:36:26;17.00;49.10
9118;DHT22;4594;50.994;7.126;2023-05-07T02:38:52;16.90;48.90
9118;DHT22;4594;50.994;7.126;2023-05-07T02:41:18;16.90;48.90
9118;DHT22;4594;50.994;7.126;2023-05-07T02:43:43;16.80;48.90
9118;DHT22;4594;50.994;7.126;2023-05-07T02:46:09;16.80;48.90
9118;DHT22;4594;50.994;7.126;2023-05-07T02:48:35;16.80;49.00
9118;DHT22;4594;50.994;7.126;2023-05-07T02:51:01;16.60;48.90
9118;DHT22;4594;50.994;7.126;2023-05-07T02:53:27;16.70;49.00
9118;DHT22;4594;50.994;7.126;2023-05-07T02:55:59;16.70;49.00
9118;DHT22;4594;50.994;7.126;2023-05-07T02:58:25;16.70;49.10
9118;DHT22;4594;50.994;7.126;2023-05-07T03:00:52;16.60;49.00
9118;DHT22;4594;50.994;7.126;2023-05-07T03:03:19;16.60;49.10
9118;DHT22;4594;50.994;7.126;2023-05-07T03:05:46;16.50;49.10
9118;DHT22;4594;50.994;7.126;2023-05-07T03:08:12;16.60;49.20
9118;DHT22;4594;50.994;7.126;2023-05-07T03:10:38;16.50;49.20
9118;DHT22;4594;50.994;7.126;2023-05-07T03:13:04;16.60;49.30
9118;DHT22;4594;50.994;7.126;2023-05-07T03:15:30;16.50;49.50
9118;DHT22;4594;50.994;7.126;2023-05-07T03:17:56;16.50;49.30
9118;DHT22;4594;50.994;7.126;2023-05-07T03:20:22;16.50;49.30
9118;DHT22;4594;50.994;7.126;2023-05-07T03:22:48;16.70;49.40
9118;DHT22;4594;50.994;7.126;2023-05-07T03:25:13;16.40;49.20
9118;DHT22;4594;50.994;7.126;2023-05-07T03:27:40;16.50;49.20
9118;DHT22;4594;50.994;7.126;2023-05-07T03:30:07;16.50;49.20
9118;DHT22;4594;50.994;7.126;2023-05-07T03:32:34;16.40;49.10
9118;DHT22;4594;50.994;7.126;2023-05-07T03:35:01;16.40;49.10
9118;DHT22;4594;50.994;7.126;2023-05-07T03:37:27;16.40;49.20
9118;DHT22;4594;50.994;7.126;2023-05-07T03:39:53;16.30;49.10
9118;DHT22;4594;50.994;7.126;2023-05-07T03:42:19;16.30;49.10
9118;DHT22;4594;50.994;7.126;2023-05-07T03:44:45;16.20;49.10
9118;DHT22;4594;50.994;7.126;2023-05-07T03:47:10;16.30;49.30
9118;DHT22;4594;50.994;7.126;2023-05-07T03:49:36;16.20;49.20
9118;DHT22;4594;50.994;7.126;2023-05-07T03:52:02;16.20;49.30
9118;DHT22;4594;50.994;7.126;2023-05-07T03:54:28;16.10;49.30
9118;DHT22;4594;50.994;7.126;2023-05-07T03:56:53;16.10;49.30
9118;DHT22;4594;50.994;7.126;2023-05-07T03:59:19;16.10;49.40
9118;DHT22;4594;50.994;7.126;2023-05-07T04:01:44;16.10;49.40
9118;DHT22;4594;50.994;7.126;2023-05-07T04:04:10;16.00;49.40
9118;DHT22;4594;50.994;7.126;2023-05-07T04:06:36;16.10;49.50
9118;DHT22;4594;50.994;7.126;2023-05-07T04:09:02;16.00;49.50
9118;DHT22;4594;50.994;7.126;2023-05-07T04:11:28;15.90;49.50
9118;DHT22;4594;50.994;7.126;2023-05-07T04:13:54;16.00;49.70
9118;DHT22;4594;50.994;7.126;2023-05-07T04:16:20;15.90;49.70
9118;DHT22;4594;50.994;7.126;2023-05-07T04:18:46;16.00;49.70
9118;DHT22;4594;50.994;7.126;2023-05-07T04:21:19;15.90;49.70
9118;DHT22;4594;50.994;7.126;2023-05-07T04:23:48;15.90;50.00
9118;DHT22;4594;50.994;7.126;2023-05-07T04:26:15;15.80;50.00
9118;DHT22;4594;50.994;7.126;2023-05-07T04:28:41;15.80;50.00
9118;DHT22;4594;50.994;7.126;2023-05-07T04:31:07;15.80;50.10
9118;DHT22;4594;50.994;7.126;2023-05-07T04:33:33;15.80;50.20
9118;DHT22;4594;50.994;7.126;2023-05-07T04:36:02;15.80;50.40
9118;DHT22;4594;50.994;7.126;2023-05-07T04:38:30;15.90;50.70
9118;DHT22;4594;50.994;7.126;2023-05-07T04:40:57;15.90;50.80
9118;DHT22;4594;50.994;7.126;2023-05-07T04:43:27;15.90;50.90
9118;DHT22;4594;50.994;7.126;2023-05-07T04:45:53;16.00;51.10
9118;DHT22;4594;50.994;7.126;2023-05-07T04:48:18;16.00;51.10
9118;DHT22;4594;50.994;7.126;2023-05-07T04:50:51;16.00;51.00
9118;DHT22;4594;50.994;7.126;2023-05-07T04:53:17;16.00;51.30
9118;DHT22;4594;50.994;7.126;2023-05-07T04:55:44;16.10;51.20
9118;DHT22;4594;50.994;7.126;2023-05-07T04:58:11;16.10;51.40
9118;DHT22;4594;50.994;7.126;2023-05-07T05:00:37;16.00;51.50
9118;DHT22;4594;50.994;7.126;2023-05-07T05:03:05;16.20;51.80
9118;DHT22;4594;50.994;7.126;2023-05-07T05:05:32;16.30;52.10
9118;DHT22;4594;50.994;7.126;2023-05-07T05:07:57;16.50;52.20
9118;DHT22;4594;50.994;7.126;2023-05-07T05:10:23;16.50;52.30
9118;DHT22;4594;50.994;7.126;2023-05-07T05:12:49;16.50;52.40
9118;DHT22;4594;50.994;7.126;2023-05-07T05:15:15;16.60;52.50
9118;DHT22;4594;50.994;7.126;2023-05-07T05:17:40;16.70;52.70
9118;DHT22;4594;50.994;7.126;2023-05-07T05:20:06;16.80;52.80
9118;DHT22;4594;50.994;7.126;2023-05-07T05:22:32;16.90;53.00
9118;DHT22;4594;50.994;7.126;2023-05-07T05:24:58;17.10;53.10
9118;DHT22;4594;50.994;7.126;2023-05-07T05:27:24;17.10;53.10
9118;DHT22;4594;50.994;7.126;2023-05-07T05:29:50;17.20;53.10
9118;DHT22;4594;50.994;7.126;2023-05-07T05:32:15;17.40;53.10
9118;DHT22;4594;50.994;7.126;2023-05-07T05:34:41;17.40;53.00
9118;DHT22;4594;50.994;7.126;2023-05-07T05:37:07;17.50;53.00
9118;DHT22;4594;50.994;7.126;2023-05-07T05:39:33;17.60;53.10
9118;DHT22;4594;50.994;7.126;2023-05-07T05:41:58;17.70;53.10
9118;DHT22;4594;50.994;7.126;2023-05-07T05:44:25;17.80;53.00
9118;DHT22;4594;50.994;7.126;2023-05-07T05:46:50;17.80;52.80
9118;DHT22;4594;50.994;7.126;2023-05-07T05:49:16;18.00;52.70
9118;DHT22;4594;50.994;7.126;2023-05-07T05:51:43;18.10;52.60
9118;DHT22;4594;50.994;7.126;2023-05-07T05:54:09;18.10;52.20
9118;DHT22;4594;50.994;7.126;2023-05-07T05:56:34;18.20;52.00
9118;DHT22;4594;50.994;7.126;2023-05-07T05:59:00;18.30;52.10
9118;DHT22;4594;50.994;7.126;2023-05-07T06:01:26;18.30;52.10
9118;DHT22;4594;50.994;7.126;2023-05-07T06:03:52;18.40;52.20
9118;DHT22;4594;50.994;7.126;2023-05-07T06:06:17;18.40;52.00
9118;DHT22;4594;50.994;7.126;2023-05-07T06:08:43;18.50;52.10
9118;DHT22;4594;50.994;7.126;2023-05-07T06:11:09;18.60;52.30
9118;DHT22;4594;50.994;7.126;2023-05-07T06:13:34;18.60;52.20
9118;DHT22;4594;50.994;7.126;2023-05-07T06:16:00;18.70;52.20
9118;DHT22;4594;50.994;7.126;2023-05-07T06:18:26;18.80;52.20
9118;DHT22;4594;50.994;7.126;2023-05-07T06:20:52;18.80;51.90
9118;DHT22;4594;50.994;7.126;2023-05-07T06:23:18;18.90;52.10
9118;DHT22;4594;50.994;7.126;2023-05-07T06:25:50;18.90;51.90
9118;DHT22;4594;50.994;7.126;2023-05-07T06:28:16;19.00;51.40
9118;DHT22;4594;50.994;7.126;2023-05-07T06:30:42;19.10;51.70
9118;DHT22;4594;50.994;7.126;2023-05-07T06:33:08;19.10;51.60
9118;DHT22;4594;50.994;7.126;2023-05-07T06:35:34;19.20;51.60
9118;DHT22;4594;50.994;7.126;2023-05-07T06:38:00;19.20;51.30
9118;DHT22;4594;50.994;7.126;2023-05-07T06:40:26;19.30;51.20
9118;DHT22;4594;50.994;7.126;2023-05-07T06:42:52;19.40;51.10
9118;DHT22;4594;50.994;7.126;2023-05-07T06:45:19;19.40;50.90
9118;DHT22;4594;50.994;7.126;2023-05-07T06:47:45;19.50;50.90
9118;DHT22;4594;50.994;7.126;2023-05-07T06:50:11;19.50;50.70
9118;DHT22;4594;50.994;7.126;2023-05-07T06:52:37;19.60;51.00
9118;DHT22;4594;50.994;7.126;2023-05-07T06:55:03;19.80;50.70
9118;DHT22;4594;50.994;7.126;2023-05-07T06:57:29;19.80;50.70
9118;DHT22;4594;50.994;7.126;2023-05-07T06:59:55;19.90;50.80
9118;DHT22;4594;50.994;7.126;2023-05-07T07:02:21;20.00;51.10
9118;DHT22;4594;50.994;7.126;2023-05-07T07:04:47;20.10;51.30
9118;DHT22;4594;50.994;7.126;2023-05-07T07:07:12;20.30;51.70
9118;DHT22;4594;50.994;7.126;2023-05-07T07:09:38;20.40;51.80
9118;DHT22;4594;50.994;7.126;2023-05-07T07:12:04;20.70;51.80
9118;DHT22;4594;50.994;7.126;2023-05-07T07:14:30;21.00;52.10
9118;DHT22;4594;50.994;7.126;2023-05-07T07:16:55;21.30;52.40
9118;DHT22;4594;50.994;7.126;2023-05-07T07:19:21;21.60;52.10
9118;DHT22;4594;50.994;7.126;2023-05-07T07:21:47;21.90;51.90
9118;DHT22;4594;50.994;7.126;2023-05-07T07:24:13;22.20;51.90
9118;DHT22;4594;50.994;7.126;2023-05-07T07:26:44;22.50;52.30
9118;DHT22;4594;50.994;7.126;2023-05-07T07:29:10;22.90;52.50
9118;DHT22;4594;50.994;7.126;2023-05-07T07:31:36;23.30;52.50
9118;DHT22;4594;50.994;7.126;2023-05-07T07:34:01;23.60;52.10
9118;DHT22;4594;50.994;7.126;2023-05-07T07:36:27;23.90;51.50
9118;DHT22;4594;50.994;7.126;2023-05-07T07:38:53;24.20;51.40
9118;DHT22;4594;50.994;7.126;2023-05-07T07:41:19;24.60;51.10
9118;DHT22;4594;50.994;7.126;2023-05-07T07:43:45;24.90;51.40
9118;DHT22;4594;50.994;7.126;2023-05-07T07:46:12;25.30;51.00
9118;DHT22;4594;50.994;7.126;2023-05-07T07:48:37;25.70;50.10
9118;DHT22;4594;50.994;7.126;2023-05-07T07:51:03;26.00;49.20
9118;DHT22;4594;50.994;7.126;2023-05-07T07:53:29;26.30;48.80
9118;DHT22;4594;50.994;7.126;2023-05-07T07:55:55;26.60;48.50
9118;DHT22;4594;50.994;7.126;2023-05-07T07:58:21;26.90;48.20
9118;DHT22;4594;50.994;7.126;2023-05-07T08:00:47;27.20;47.80
9118;DHT22;4594;50.994;7.126;2023-05-07T08:03:13;27.50;47.40
9118;DHT22;4594;50.994;7.126;2023-05-07T08:05:41;27.90;47.20
9118;DHT22;4594;50.994;7.126;2023-05-07T08:08:08;28.20;46.70
9118;DHT22;4594;50.994;7.126;2023-05-07T08:10:33;28.50;45.80
9118;DHT22;4594;50.994;7.126;2023-05-07T08:13:00;28.70;44.70
9118;DHT22;4594;50.994;7.126;2023-05-07T08:15:27;28.80;43.80
9118;DHT22;4594;50.994;7.126;2023-05-07T08:17:52;28.80;43.40
9118;DHT22;4594;50.994;7.126;2023-05-07T08:20:18;28.80;42.80
9118;DHT22;4594;50.994;7.126;2023-05-07T08:22:44;28.70;42.50
9118;DHT22;4594;50.994;7.126;2023-05-07T08:25:09;28.60;42.00
9118;DHT22;4594;50.994;7.126;2023-05-07T08:27:35;28.50;41.50
9118;DHT22;4594;50.994;7.126;2023-05-07T08:30:01;28.40;41.50
9118;DHT22;4594;50.994;7.126;2023-05-07T08:32:27;28.20;41.30
9118;DHT22;4594;50.994;7.126;2023-05-07T08:34:53;28.10;41.20
9118;DHT22;4594;50.994;7.126;2023-05-07T08:37:19;28.10;41.40
9118;DHT22;4594;50.994;7.126;2023-05-07T08:39:45;28.00;41.40
9118;DHT22;4594;50.994;7.126;2023-05-07T08:42:11;28.00;41.70
9118;DHT22;4594;50.994;7.126;2023-05-07T08:44:41;28.10;41.60
9118;DHT22;4594;50.994;7.126;2023-05-07T08:47:12;28.30;42.00
9118;DHT22;4594;50.994;7.126;2023-05-07T08:49:38;28.50;42.40
9118;DHT22;4594;50.994;7.126;2023-05-07T08:52:03;28.70;42.50
9118;DHT22;4594;50.994;7.126;2023-05-07T08:54:30;29.00;42.40
9118;DHT22;4594;50.994;7.126;2023-05-07T08:56:57;29.30;42.80
9118;DHT22;4594;50.994;7.126;2023-05-07T08:59:23;29.80;43.20
9118;DHT22;4594;50.994;7.126;2023-05-07T09:01:48;30.30;43.40
9118;DHT22;4594;50.994;7.126;2023-05-07T09:04:14;30.80;43.20
9118;DHT22;4594;50.994;7.126;2023-05-07T09:06:40;31.20;42.70
9118;DHT22;4594;50.994;7.126;2023-05-07T09:09:07;31.60;42.00
9118;DHT22;4594;50.994;7.126;2023-05-07T09:11:33;31.90;41.60
9118;DHT22;4594;50.994;7.126;2023-05-07T09:13:59;32.00;40.90
9118;DHT22;4594;50.994;7.126;2023-05-07T09:16:28;32.10;40.00
9118;DHT22;4594;50.994;7.126;2023-05-07T09:18:56;32.10;39.50
9118;DHT22;4594;50.994;7.126;2023-05-07T09:21:24;32.10;38.90
9118;DHT22;4594;50.994;7.126;2023-05-07T09:23:54;32.00;38.40
9118;DHT22;4594;50.994;7.126;2023-05-07T09:26:24;31.90;37.70
9118;DHT22;4594;50.994;7.126;2023-05-07T09:28:51;31.70;37.60
9118;DHT22;4594;50.994;7.126;2023-05-07T09:31:17;31.50;37.60
9118;DHT22;4594;50.994;7.126;2023-05-07T09:33:43;31.30;37.80
9118;DHT22;4594;50.994;7.126;2023-05-07T09:36:09;31.20;38.10
9118;DHT22;4594;50.994;7.126;2023-05-07T09:38:36;31.20;38.10
9118;DHT22;4594;50.994;7.126;2023-05-07T09:41:07;31.30;38.20
9118;DHT22;4594;50.994;7.126;2023-05-07T09:43:36;31.30;38.20
9118;DHT22;4594;50.994;7.126;2023-05-07T09:46:07;31.40;38.20
9118;DHT22;4594;50.994;7.126;2023-05-07T09:48:41;31.50;37.80
9118;DHT22;4594;50.994;7.126;2023-05-07T09:51:29;31.50;37.50
9118;DHT22;4594;50.994;7.126;2023-05-07T09:54:00;31.50;36.80
9118;DHT22;4594;50.994;7.126;2023-05-07T09:56:29;31.50;37.40
9118;DHT22;4594;50.994;7.126;2023-05-07T09:58:59;31.50;37.50
9118;DHT22;4594;50.994;7.126;2023-05-07T10:01:26;31.70;38.00
9118;DHT22;4594;50.994;7.126;2023-05-07T10:03:53;31.90;37.70
9118;DHT22;4594;50.994;7.126;2023-05-07T10:06:24;32.10;37.60
9118;DHT22;4594;50.994;7.126;2023-05-07T10:08:54;32.30;37.00
9118;DHT22;4594;50.994;7.126;2023-05-07T10:11:22;32.50;37.50
9118;DHT22;4594;50.994;7.126;2023-05-07T10:13:48;32.80;37.30
9118;DHT22;4594;50.994;7.126;2023-05-07T10:16:14;33.00;37.00
9118;DHT22;4594;50.994;7.126;2023-05-07T10:18:40;33.10;36.40
9118;DHT22;4594;50.994;7.126;2023-05-07T10:21:20;33.10;36.00
9118;DHT22;4594;50.994;7.126;2023-05-07T10:23:51;33.10;35.00
9118;DHT22;4594;50.994;7.126;2023-05-07T10:26:27;33.10;35.20
9118;DHT22;4594;50.994;7.126;2023-05-07T10:29:05;33.00;35.10
9118;DHT22;4594;50.994;7.126;2023-05-07T10:34:36;32.60;34.10
9118;DHT22;4594;50.994;7.126;2023-05-07T10:37:06;32.40;34.20
9118;DHT22;4594;50.994;7.126;2023-05-07T10:39:33;32.20;34.30
9118;DHT22;4594;50.994;7.126;2023-05-07T10:42:13;31.90;34.10
9118;DHT22;4594;50.994;7.126;2023-05-07T10:44:40;31.60;33.60
9118;DHT22;4594;50.994;7.126;2023-05-07T10:47:08;31.40;34.00
9118;DHT22;4594;50.994;7.126;2023-05-07T10:52:20;30.90;33.70
9118;DHT22;4594;50.994;7.126;2023-05-07T10:57:42;30.60;33.50
9118;DHT22;4594;50.994;7.126;2023-05-07T11:05:31;30.00;33.60
9118;DHT22;4594;50.994;7.126;2023-05-07T11:08:00;29.90;34.30
9118;DHT22;4594;50.994;7.126;2023-05-07T11:10:55;29.90;34.30
9118;DHT22;4594;50.994;7.126;2023-05-07T11:13:41;30.10;34.30
9118;DHT22;4594;50.994;7.126;2023-05-07T11:16:23;30.20;34.20
9118;DHT22;4594;50.994;7.126;2023-05-07T11:18:55;30.40;34.30
9118;DHT22;4594;50.994;7.126;2023-05-07T11:21:35;30.60;34.60
9118;DHT22;4594;50.994;7.126;2023-05-07T11:24:03;30.80;34.10
9118;DHT22;4594;50.994;7.126;2023-05-07T11:26:46;30.90;34.50
9118;DHT22;4594;50.994;7.126;2023-05-07T11:29:21;31.00;34.00
9118;DHT22;4594;50.994;7.126;2023-05-07T11:31:54;31.10;33.90
9118;DHT22;4594;50.994;7.126;2023-05-07T11:34:24;31.30;34.40
9118;DHT22;4594;50.994;7.126;2023-05-07T11:36:51;31.40;34.30
9118;DHT22;4594;50.994;7.126;2023-05-07T11:39:32;31.40;34.00
9118;DHT22;4594;50.994;7.126;2023-05-07T11:42:02;31.50;33.30
9118;DHT22;4594;50.994;7.126;2023-05-07T11:44:44;31.50;33.70
9118;DHT22;4594;50.994;7.126;2023-05-07T11:47:11;31.40;33.00
9118;DHT22;4594;50.994;7.126;2023-05-07T11:49:43;31.20;33.00
9118;DHT22;4594;50.994;7.126;2023-05-07T11:52:09;31.00;32.90
9118;DHT22;4594;50.994;7.126;2023-05-07T11:54:36;30.80;32.90
9118;DHT22;4594;50.994;7.126;2023-05-07T11:57:02;30.70;32.90
9118;DHT22;4594;50.994;7.126;2023-05-07T11:59:28;30.60;33.10
9118;DHT22;4594;50.994;7.126;2023-05-07T12:01:57;30.40;33.00
9118;DHT22;4594;50.994;7.126;2023-05-07T12:04:24;30.30;32.80
9118;DHT22;4594;50.994;7.126;2023-05-07T12:06:53;30.20;32.80
9118;DHT22;4594;50.994;7.126;2023-05-07T12:09:21;30.10;32.60
9118;DHT22;4594;50.994;7.126;2023-05-07T12:11:47;29.90;32.60
9118;DHT22;4594;50.994;7.126;2023-05-07T12:14:13;29.70;32.80
9118;DHT22;4594;50.994;7.126;2023-05-07T12:16:41;29.60;32.70
9118;DHT22;4594;50.994;7.126;2023-05-07T12:19:08;29.40;32.50
9118;DHT22;4594;50.994;7.126;2023-05-07T12:21:38;29.30;32.60
9118;DHT22;4594;50.994;7.126;2023-05-07T12:24:04;29.10;32.60
9118;DHT22;4594;50.994;7.126;2023-05-07T12:26:30;29.00;32.80
9118;DHT22;4594;50.994;7.126;2023-05-07T12:28:59;28.90;32.80
9118;DHT22;4594;50.994;7.126;2023-05-07T12:31:28;28.80;33.00
9118;DHT22;4594;50.994;7.126;2023-05-07T12:33:54;28.80;32.90
9118;DHT22;4594;50.994;7.126;2023-05-07T12:36:19;28.70;33.00
9118;DHT22;4594;50.994;7.126;2023-05-07T12:38:49;28.60;32.80
9118;DHT22;4594;50.994;7.126;2023-05-07T12:41:15;28.50;32.90
9118;DHT22;4594;50.994;7.126;2023-05-07T12:43:44;28.40;33.10
9118;DHT22;4594;50.994;7.126;2023-05-07T12:46:11;28.30;32.90
9118;DHT22;4594;50.994;7.126;2023-05-07T12:48:43;28.20;32.80
9118;DHT22;4594;50.994;7.126;2023-05-07T12:51:11;28.10;32.80
9118;DHT22;4594;50.994;7.126;2023-05-07T12:53:42;28.10;33.00
9118;DHT22;4594;50.994;7.126;2023-05-07T12:56:08;28.00;33.10
9118;DHT22;4594;50.994;7.126;2023-05-07T12:58:35;27.90;33.30
9118;DHT22;4594;50.994;7.126;2023-05-07T13:01:04;27.90;33.30
9118;DHT22;4594;50.994;7.126;2023-05-07T13:03:34;27.90;33.30
9118;DHT22;4594;50.994;7.126;2023-05-07T13:06:06;27.80;33.30
9118;DHT22;4594;50.994;7.126;2023-05-07T13:08:40;27.80;33.10
9118;DHT22;4594;50.994;7.126;2023-05-07T13:11:09;27.70;33.20
9118;DHT22;4594;50.994;7.126;2023-05-07T13:13:37;27.60;33.30
9118;DHT22;4594;50.994;7.126;2023-05-07T13:16:05;27.60;33.40
9118;DHT22;4594;50.994;7.126;2023-05-07T13:18:32;27.60;33.40
9118;DHT22;4594;50.994;7.126;2023-05-07T13:20:59;27.50;33.50
9118;DHT22;4594;50.994;7.126;2023-05-07T13:23:26;27.50;33.80
9118;DHT22;4594;50.994;7.126;2023-05-07T13:25:53;27.50;33.50
9118;DHT22;4594;50.994;7.126;2023-05-07T13:28:25;27.50;33.40
9118;DHT22;4594;50.994;7.126;2023-05-07T13:30:52;27.40;33.40
9118;DHT22;4594;50.994;7.126;2023-05-07T13:33:19;27.40;33.50
9118;DHT22;4594;50.994;7.126;2023-05-07T13:35:45;27.40;33.70
9118;DHT22;4594;50.994;7.126;2023-05-07T13:38:11;27.30;33.60
9118;DHT22;4594;50.994;7.126;2023-05-07T13:40:36;27.30;33.50
9118;DHT22;4594;50.994;7.126;2023-05-07T13:43:02;27.30;33.60
9118;DHT22;4594;50.994;7.126;2023-05-07T13:45:29;27.30;33.80
9118;DHT22;4594;50.994;7.126;2023-05-07T13:47:55;27.30;33.90
9118;DHT22;4594;50.994;7.126;2023-05-07T13:50:22;27.40;33.90
9118;DHT22;4594;50.994;7.126;2023-05-07T13:52:48;27.40;33.80
9118;DHT22;4594;50.994;7.126;2023-05-07T13:55:20;27.40;33.90
9118;DHT22;4594;50.994;7.126;2023-05-07T13:57:47;27.40;33.90
9118;DHT22;4594;50.994;7.126;2023-05-07T14:00:13;27.40;33.90
9118;DHT22;4594;50.994;7.126;2023-05-07T14:02:40;27.40;34.00
9118;DHT22;4594;50.994;7.126;2023-05-07T14:05:06;27.50;34.20
9118;DHT22;4594;50.994;7.126;2023-05-07T14:07:33;27.40;34.20
9118;DHT22;4594;50.994;7.126;2023-05-07T14:09:58;27.40;34.10
9118;DHT22;4594;50.994;7.126;2023-05-07T14:12:24;27.40;34.10
9118;DHT22;4594;50.994;7.126;2023-05-07T14:14:50;27.40;34.10
9118;DHT22;4594;50.994;7.126;2023-05-07T14:17:17;27.30;34.10
9118;DHT22;4594;50.994;7.126;2023-05-07T14:19:43;27.20;33.90
9118;DHT22;4594;50.994;7.126;2023-05-07T14:22:09;27.20;33.90
9118;DHT22;4594;50.994;7.126;2023-05-07T14:24:35;27.10;34.00
9118;DHT22;4594;50.994;7.126;2023-05-07T14:27:01;27.00;34.60
9118;DHT22;4594;50.994;7.126;2023-05-07T14:29:27;26.90;35.20
9118;DHT22;4594;50.994;7.126;2023-05-07T14:31:53;26.70;35.60
9118;DHT22;4594;50.994;7.126;2023-05-07T14:34:18;26.30;35.60
9118;DHT22;4594;50.994;7.126;2023-05-07T14:36:44;26.00;35.60
9118;DHT22;4594;50.994;7.126;2023-05-07T14:39:10;25.70;35.80
9118;DHT22;4594;50.994;7.126;2023-05-07T14:41:35;25.20;35.80
9118;DHT22;4594;50.994;7.126;2023-05-07T14:44:01;24.80;36.20
9118;DHT22;4594;50.994;7.126;2023-05-07T14:46:29;24.30;36.90
9118;DHT22;4594;50.994;7.126;2023-05-07T14:48:56;23.80;37.60
9118;DHT22;4594;50.994;7.126;2023-05-07T14:51:22;23.20;38.30
9118;DHT22;4594;50.994;7.126;2023-05-07T14:53:50;22.60;38.60
9118;DHT22;4594;50.994;7.126;2023-05-07T14:56:16;22.20;39.10
9118;DHT22;4594;50.994;7.126;2023-05-07T14:58:42;21.70;39.10
9118;DHT22;4594;50.994;7.126;2023-05-07T15:01:08;21.30;39.40
9118;DHT22;4594;50.994;7.126;2023-05-07T15:03:34;20.90;39.70
9118;DHT22;4594;50.994;7.126;2023-05-07T15:06:01;20.40;40.30
9118;DHT22;4594;50.994;7.126;2023-05-07T15:08:27;20.10;41.10
9118;DHT22;4594;50.994;7.126;2023-05-07T15:10:53;19.80;42.20
9118;DHT22;4594;50.994;7.126;2023-05-07T15:13:20;19.60;43.50
9118;DHT22;4594;50.994;7.126;2023-05-07T15:15:46;19.40;44.70
9118;DHT22;4594;50.994;7.126;2023-05-07T15:18:13;19.30;46.50
9118;DHT22;4594;50.994;7.126;2023-05-07T15:20:40;19.20;48.40
9118;DHT22;4594;50.994;7.126;2023-05-07T15:23:07;19.20;50.40
9118;DHT22;4594;50.994;7.126;2023-05-07T15:25:37;19.10;52.10
9118;DHT22;4594;50.994;7.126;2023-05-07T15:28:03;19.00;53.30
9118;DHT22;4594;50.994;7.126;2023-05-07T15:30:29;19.10;54.50
9118;DHT22;4594;50.994;7.126;2023-05-07T15:32:54;19.10;55.30
9118;DHT22;4594;50.994;7.126;2023-05-07T15:35:21;19.10;55.90
9118;DHT22;4594;50.994;7.126;2023-05-07T15:37:48;19.10;56.40
9118;DHT22;4594;50.994;7.126;2023-05-07T15:40:17;19.10;56.80
9118;DHT22;4594;50.994;7.126;2023-05-07T15:42:44;19.10;57.30
9118;DHT22;4594;50.994;7.126;2023-05-07T15:45:11;19.00;57.80
9118;DHT22;4594;50.994;7.126;2023-05-07T15:47:36;19.20;58.30
9118;DHT22;4594;50.994;7.126;2023-05-07T15:50:03;19.30;58.70
9118;DHT22;4594;50.994;7.126;2023-05-07T15:52:30;19.20;59.20
9118;DHT22;4594;50.994;7.126;2023-05-07T15:54:56;19.30;59.70
9118;DHT22;4594;50.994;7.126;2023-05-07T15:57:23;19.30;59.80
9118;DHT22;4594;50.994;7.126;2023-05-07T15:59:49;19.30;59.70
9118;DHT22;4594;50.994;7.126;2023-05-07T16:02:15;19.40;59.60
9118;DHT22;4594;50.994;7.126;2023-05-07T16:04:41;19.40;59.50
9118;DHT22;4594;50.994;7.126;2023-05-07T16:07:06;19.40;59.60
9118;DHT22;4594;50.994;7.126;2023-05-07T16:09:32;19.40;59.60
9118;DHT22;4594;50.994;7.126;2023-05-07T16:11:59;19.40;59.50
9118;DHT22;4594;50.994;7.126;2023-05-07T16:14:25;19.30;59.50
9118;DHT22;4594;50.994;7.126;2023-05-07T16:16:51;19.30;59.80